Portada
METAR-TAF:

METAR-TAF

Aeroports :

Victòria, Mahé, Seychelles

latitud: 04-40S, longitud: 055-31E, altitud: 3 m

Observació

L'informe es va fer fa 50 minuts, a les 08:00 UTC
Vent 13 kt del Sud-Est
Temperatura 29°C
Humitat 79%
Pressió 1013 hPa
Visibilitat 10 km o més
Cel ennuvolat a una alçada de 2200 ft

METAR: FSIA 240800Z 13013KT 9999 BKN022 29/25 Q1013 NOSIG

Hora: 12:50 (08:50 UTC)

Pronòstic

L'informe es va fer fa 3 hores i 49 minuts, a les 05:01 UTC
Pronòstic vàlid del 24 a les 06 UTC al 25 a les 06 UTC
Vent 15 kt del Sud-Est amb ràfegues de 25 kt
Visibilitat 10 km o més
Núvols disperses a una alçada de 1800 ft
Probabilitat 40% :
Temporalment
l' 24 a les 12 UTC al 24 a les 18 UTC
Visibilitat 10 km o més
Cel ennuvolat a una alçada de 1800 ft
xàfecs de pluja

TAF: FSIA 240501Z 2406/2506 13015G25KT 9999 SCT018 PROB40 TEMPO 2412/2418 9999 -SHRA BKN018

Observacions i pronòstics meteorològics de més de 4000 aeroports (METAR i TAF).

Les estacions disponibles són els punts grocs i vermells al mapa.

Posi el ratolí al punt desitjat per veure el nom de l'estació.

Feu clic per veure les observacions i els pronòstics meteorològics.

Per canviar el mapa: feu clic els botons verds amb una creu de color negre per apropar; al botó verd amb un guió per allunyar la imatge; o en les fletxes verdes per a mapes adjacents.


METAR-TAF: